Disclaimer

Please do not use the information listed here in-flight or in-navigation, as they are not provided to us by the airports but are provided by volunteers, so they might be outdated.

Search


Regions


Airport information page

Radio informations:
Tower (TWR) - 119.2 MHz
PRECISION - 118.8 MHz
Approach (APP) - 119.2 MHz

Airport informations:
Latitude: 47° 10' 42.57" N
Longitude: 027° 37' 14.27" E
Elevation: 397 feet - 121 meters
Operating hours: Remarks
Operating agency: Civil government, landing fees and diplomatic clearance may be required
Timezone: UTC+2(+3DT)
Fuel: N/A

Runway information:
15/33 - 5841 x 98 feet< - >1780 x 30 meters

Recent METARs:
LRIA 160600Z 35012KT CAVOK 00/M04 Q1032 R14/19//95
LRIA 160630Z 35014KT CAVOK 00/M03 Q1032 R14/19//95
LRIA 160700Z 35011KT 9999 BKN088 01/M04 Q1032 R14/19//95

Airport on the map: